sensor_id;sensor_type;location;lat;lon;timestamp;P1;durP1;ratioP1;P2;durP2;ratioP2
17614;SDS011;8926;49.720;6.576;2022-07-22T00:00:57;4.83;;;4.30;;
17614;SDS011;8926;49.720;6.576;2022-07-22T00:03:23;4.70;;;4.40;;
17614;SDS011;8926;49.720;6.576;2022-07-22T00:05:48;4.73;;;4.33;;
17614;SDS011;8926;49.720;6.576;2022-07-22T00:08:14;5.20;;;4.80;;
17614;SDS011;8926;49.720;6.576;2022-07-22T00:10:40;5.00;;;4.67;;
17614;SDS011;8926;49.720;6.576;2022-07-22T00:13:06;6.47;;;4.93;;
17614;SDS011;8926;49.720;6.576;2022-07-22T00:15:31;5.40;;;4.90;;
17614;SDS011;8926;49.720;6.576;2022-07-22T00:17:56;4.87;;;4.57;;
17614;SDS011;8926;49.720;6.576;2022-07-22T00:20:22;6.77;;;6.23;;
17614;SDS011;8926;49.720;6.576;2022-07-22T00:22:47;6.27;;;5.77;;
17614;SDS011;8926;49.720;6.576;2022-07-22T00:25:12;5.10;;;4.70;;
17614;SDS011;8926;49.720;6.576;2022-07-22T00:27:38;4.47;;;4.17;;
17614;SDS011;8926;49.720;6.576;2022-07-22T00:30:04;6.40;;;5.90;;
17614;SDS011;8926;49.720;6.576;2022-07-22T00:32:29;6.43;;;5.97;;
17614;SDS011;8926;49.720;6.576;2022-07-22T00:34:55;5.30;;;4.90;;
17614;SDS011;8926;49.720;6.576;2022-07-22T00:37:20;6.40;;;5.90;;
17614;SDS011;8926;49.720;6.576;2022-07-22T00:39:45;5.40;;;5.00;;
17614;SDS011;8926;49.720;6.576;2022-07-22T00:42:13;5.17;;;4.77;;
17614;SDS011;8926;49.720;6.576;2022-07-22T00:44:38;4.00;;;3.70;;
17614;SDS011;8926;49.720;6.576;2022-07-22T00:47:03;3.70;;;3.50;;
17614;SDS011;8926;49.720;6.576;2022-07-22T00:49:29;3.40;;;3.20;;
17614;SDS011;8926;49.720;6.576;2022-07-22T00:51:54;3.10;;;2.90;;
17614;SDS011;8926;49.720;6.576;2022-07-22T00:54:20;3.30;;;3.10;;
17614;SDS011;8926;49.720;6.576;2022-07-22T00:56:45;3.50;;;3.30;;
17614;SDS011;8926;49.720;6.576;2022-07-22T00:59:11;3.23;;;3.03;;
17614;SDS011;8926;49.720;6.576;2022-07-22T01:01:37;3.47;;;3.27;;
17614;SDS011;8926;49.720;6.576;2022-07-22T01:04:02;3.70;;;3.40;;
17614;SDS011;8926;49.720;6.576;2022-07-22T01:06:29;3.30;;;3.10;;
17614;SDS011;8926;49.720;6.576;2022-07-22T01:08:55;3.87;;;3.67;;
17614;SDS011;8926;49.720;6.576;2022-07-22T01:11:21;3.70;;;3.50;;
17614;SDS011;8926;49.720;6.576;2022-07-22T01:13:47;3.67;;;3.47;;
17614;SDS011;8926;49.720;6.576;2022-07-22T01:16:14;3.33;;;3.13;;
17614;SDS011;8926;49.720;6.576;2022-07-22T01:18:41;3.13;;;2.93;;
17614;SDS011;8926;49.720;6.576;2022-07-22T01:21:06;3.97;;;3.67;;
17614;SDS011;8926;49.720;6.576;2022-07-22T01:23:33;4.20;;;3.90;;
17614;SDS011;8926;49.720;6.576;2022-07-22T01:25:59;3.80;;;3.50;;
17614;SDS011;8926;49.720;6.576;2022-07-22T01:28:24;3.57;;;3.37;;
17614;SDS011;8926;49.720;6.576;2022-07-22T01:30:50;3.70;;;3.40;;
17614;SDS011;8926;49.720;6.576;2022-07-22T01:33:16;4.53;;;4.13;;
17614;SDS011;8926;49.720;6.576;2022-07-22T01:35:45;4.07;;;3.83;;
17614;SDS011;8926;49.720;6.576;2022-07-22T01:38:12;4.27;;;3.97;;
17614;SDS011;8926;49.720;6.576;2022-07-22T01:40:37;4.70;;;3.70;;
17614;SDS011;8926;49.720;6.576;2022-07-22T01:43:03;4.40;;;4.10;;
17614;SDS011;8926;49.720;6.576;2022-07-22T01:45:28;4.10;;;3.80;;
17614;SDS011;8926;49.720;6.576;2022-07-22T01:47:54;4.27;;;3.93;;
17614;SDS011;8926;49.720;6.576;2022-07-22T01:50:19;4.17;;;3.90;;
17614;SDS011;8926;49.720;6.576;2022-07-22T01:52:45;5.03;;;4.53;;
17614;SDS011;8926;49.720;6.576;2022-07-22T01:55:10;4.93;;;4.53;;
17614;SDS011;8926;49.720;6.576;2022-07-22T01:57:37;4.17;;;3.97;;
17614;SDS011;8926;49.720;6.576;2022-07-22T02:00:04;4.40;;;4.10;;
17614;SDS011;8926;49.720;6.576;2022-07-22T02:02:32;4.20;;;3.90;;
17614;SDS011;8926;49.720;6.576;2022-07-22T02:04:58;4.00;;;3.80;;
17614;SDS011;8926;49.720;6.576;2022-07-22T02:07:23;4.70;;;4.40;;
17614;SDS011;8926;49.720;6.576;2022-07-22T02:09:50;4.23;;;4.00;;
17614;SDS011;8926;49.720;6.576;2022-07-22T02:12:16;5.57;;;5.07;;
17614;SDS011;8926;49.720;6.576;2022-07-22T02:14:42;4.20;;;3.90;;
17614;SDS011;8926;49.720;6.576;2022-07-22T02:17:07;4.63;;;4.33;;
17614;SDS011;8926;49.720;6.576;2022-07-22T02:19:32;3.90;;;3.70;;
17614;SDS011;8926;49.720;6.576;2022-07-22T02:21:58;4.37;;;4.07;;
17614;SDS011;8926;49.720;6.576;2022-07-22T02:24:23;3.20;;;3.00;;
17614;SDS011;8926;49.720;6.576;2022-07-22T02:26:48;4.07;;;3.77;;
17614;SDS011;8926;49.720;6.576;2022-07-22T02:29:13;4.30;;;4.03;;
17614;SDS011;8926;49.720;6.576;2022-07-22T02:31:39;3.70;;;3.40;;
17614;SDS011;8926;49.720;6.576;2022-07-22T02:34:04;3.50;;;3.30;;
17614;SDS011;8926;49.720;6.576;2022-07-22T02:36:30;3.97;;;3.70;;
17614;SDS011;8926;49.720;6.576;2022-07-22T02:38:55;3.50;;;3.30;;
17614;SDS011;8926;49.720;6.576;2022-07-22T02:41:20;3.80;;;3.60;;
17614;SDS011;8926;49.720;6.576;2022-07-22T02:43:46;4.33;;;4.10;;
17614;SDS011;8926;49.720;6.576;2022-07-22T02:46:12;3.20;;;3.00;;
17614;SDS011;8926;49.720;6.576;2022-07-22T02:48:37;3.90;;;3.60;;
17614;SDS011;8926;49.720;6.576;2022-07-22T02:51:02;3.30;;;3.10;;
17614;SDS011;8926;49.720;6.576;2022-07-22T02:53:28;3.37;;;3.17;;
17614;SDS011;8926;49.720;6.576;2022-07-22T02:55:53;3.20;;;3.00;;
17614;SDS011;8926;49.720;6.576;2022-07-22T02:58:19;3.23;;;3.03;;
17614;SDS011;8926;49.720;6.576;2022-07-22T03:00:44;3.50;;;3.30;;
17614;SDS011;8926;49.720;6.576;2022-07-22T03:03:10;3.90;;;3.70;;
17614;SDS011;8926;49.720;6.576;2022-07-22T03:05:35;4.37;;;4.07;;
17614;SDS011;8926;49.720;6.576;2022-07-22T03:08:00;3.80;;;3.60;;
17614;SDS011;8926;49.720;6.576;2022-07-22T03:10:26;3.87;;;3.67;;
17614;SDS011;8926;49.720;6.576;2022-07-22T03:12:51;4.10;;;3.80;;
17614;SDS011;8926;49.720;6.576;2022-07-22T03:15:16;3.60;;;3.40;;
17614;SDS011;8926;49.720;6.576;2022-07-22T03:17:42;3.33;;;3.13;;
17614;SDS011;8926;49.720;6.576;2022-07-22T03:20:08;3.50;;;3.30;;
17614;SDS011;8926;49.720;6.576;2022-07-22T03:22:34;4.07;;;3.77;;
17614;SDS011;8926;49.720;6.576;2022-07-22T03:25:00;4.43;;;4.13;;
17614;SDS011;8926;49.720;6.576;2022-07-22T03:27:26;4.57;;;4.30;;
17614;SDS011;8926;49.720;6.576;2022-07-22T03:29:51;4.20;;;4.00;;
17614;SDS011;8926;49.720;6.576;2022-07-22T03:32:17;3.77;;;3.57;;
17614;SDS011;8926;49.720;6.576;2022-07-22T03:34:43;3.60;;;3.40;;
17614;SDS011;8926;49.720;6.576;2022-07-22T03:37:08;3.90;;;3.70;;
17614;SDS011;8926;49.720;6.576;2022-07-22T03:39:34;3.97;;;3.73;;
17614;SDS011;8926;49.720;6.576;2022-07-22T03:41:59;4.57;;;4.27;;
17614;SDS011;8926;49.720;6.576;2022-07-22T03:44:25;4.23;;;3.93;;
17614;SDS011;8926;49.720;6.576;2022-07-22T03:46:50;4.27;;;4.07;;
17614;SDS011;8926;49.720;6.576;2022-07-22T03:49:15;4.30;;;4.10;;
17614;SDS011;8926;49.720;6.576;2022-07-22T03:51:41;4.37;;;4.07;;
17614;SDS011;8926;49.720;6.576;2022-07-22T03:54:06;3.70;;;3.50;;
17614;SDS011;8926;49.720;6.576;2022-07-22T03:56:31;3.80;;;3.60;;
17614;SDS011;8926;49.720;6.576;2022-07-22T03:58:57;3.90;;;3.70;;
17614;SDS011;8926;49.720;6.576;2022-07-22T04:01:22;3.90;;;3.70;;
17614;SDS011;8926;49.720;6.576;2022-07-22T04:03:47;3.77;;;3.57;;
17614;SDS011;8926;49.720;6.576;2022-07-22T04:06:13;4.30;;;4.00;;
17614;SDS011;8926;49.720;6.576;2022-07-22T04:08:39;5.70;;;5.30;;
17614;SDS011;8926;49.720;6.576;2022-07-22T04:11:05;4.43;;;4.03;;
17614;SDS011;8926;49.720;6.576;2022-07-22T04:13:30;4.77;;;4.47;;
17614;SDS011;8926;49.720;6.576;2022-07-22T04:15:55;5.63;;;5.23;;
17614;SDS011;8926;49.720;6.576;2022-07-22T04:18:21;5.97;;;5.57;;
17614;SDS011;8926;49.720;6.576;2022-07-22T04:20:46;4.90;;;4.60;;
17614;SDS011;8926;49.720;6.576;2022-07-22T04:23:12;5.47;;;5.17;;
17614;SDS011;8926;49.720;6.576;2022-07-22T04:25:37;4.53;;;4.23;;
17614;SDS011;8926;49.720;6.576;2022-07-22T04:28:03;4.10;;;3.90;;
17614;SDS011;8926;49.720;6.576;2022-07-22T04:30:29;4.43;;;4.23;;
17614;SDS011;8926;49.720;6.576;2022-07-22T04:32:54;4.30;;;4.10;;
17614;SDS011;8926;49.720;6.576;2022-07-22T04:35:19;4.37;;;4.10;;
17614;SDS011;8926;49.720;6.576;2022-07-22T04:37:45;4.40;;;4.20;;
17614;SDS011;8926;49.720;6.576;2022-07-22T04:40:10;3.93;;;3.73;;
17614;SDS011;8926;49.720;6.576;2022-07-22T04:42:36;4.73;;;4.33;;
17614;SDS011;8926;49.720;6.576;2022-07-22T04:45:02;3.57;;;3.37;;
17614;SDS011;8926;49.720;6.576;2022-07-22T04:47:28;4.33;;;4.13;;
17614;SDS011;8926;49.720;6.576;2022-07-22T04:49:53;4.10;;;3.90;;
17614;SDS011;8926;49.720;6.576;2022-07-22T04:52:19;3.57;;;3.37;;
17614;SDS011;8926;49.720;6.576;2022-07-22T04:54:44;3.93;;;3.73;;
17614;SDS011;8926;49.720;6.576;2022-07-22T04:57:09;3.67;;;3.47;;
17614;SDS011;8926;49.720;6.576;2022-07-22T04:59:35;3.73;;;3.53;;
17614;SDS011;8926;49.720;6.576;2022-07-22T05:02:00;3.50;;;3.20;;
17614;SDS011;8926;49.720;6.576;2022-07-22T05:04:25;3.93;;;3.73;;
17614;SDS011;8926;49.720;6.576;2022-07-22T05:06:50;6.13;;;5.63;;
17614;SDS011;8926;49.720;6.576;2022-07-22T05:09:16;5.67;;;5.27;;
17614;SDS011;8926;49.720;6.576;2022-07-22T05:11:41;4.50;;;4.20;;
17614;SDS011;8926;49.720;6.576;2022-07-22T05:14:06;4.27;;;4.07;;
17614;SDS011;8926;49.720;6.576;2022-07-22T05:16:32;4.50;;;4.30;;
17614;SDS011;8926;49.720;6.576;2022-07-22T05:18:57;3.73;;;3.53;;
17614;SDS011;8926;49.720;6.576;2022-07-22T05:21:22;4.77;;;4.47;;
17614;SDS011;8926;49.720;6.576;2022-07-22T05:23:47;4.43;;;4.13;;
17614;SDS011;8926;49.720;6.576;2022-07-22T05:26:13;4.23;;;3.93;;
17614;SDS011;8926;49.720;6.576;2022-07-22T05:28:38;4.20;;;4.00;;
17614;SDS011;8926;49.720;6.576;2022-07-22T05:31:03;4.43;;;4.13;;
17614;SDS011;8926;49.720;6.576;2022-07-22T05:33:29;4.70;;;4.40;;
17614;SDS011;8926;49.720;6.576;2022-07-22T05:35:54;5.43;;;5.03;;
17614;SDS011;8926;49.720;6.576;2022-07-22T05:38:19;5.37;;;4.87;;
17614;SDS011;8926;49.720;6.576;2022-07-22T05:40:45;4.50;;;4.20;;
17614;SDS011;8926;49.720;6.576;2022-07-22T05:43:10;4.70;;;4.40;;
17614;SDS011;8926;49.720;6.576;2022-07-22T05:45:35;4.30;;;4.07;;
17614;SDS011;8926;49.720;6.576;2022-07-22T05:48:01;4.30;;;4.00;;
17614;SDS011;8926;49.720;6.576;2022-07-22T05:50:26;4.30;;;3.90;;
17614;SDS011;8926;49.720;6.576;2022-07-22T05:52:52;3.97;;;3.77;;
17614;SDS011;8926;49.720;6.576;2022-07-22T05:55:17;4.57;;;4.27;;
17614;SDS011;8926;49.720;6.576;2022-07-22T05:57:42;5.03;;;4.73;;
17614;SDS011;8926;49.720;6.576;2022-07-22T06:00:08;4.20;;;3.90;;
17614;SDS011;8926;49.720;6.576;2022-07-22T06:02:34;4.50;;;4.10;;
17614;SDS011;8926;49.720;6.576;2022-07-22T06:04:59;3.77;;;3.57;;
17614;SDS011;8926;49.720;6.576;2022-07-22T06:07:25;3.57;;;3.37;;
17614;SDS011;8926;49.720;6.576;2022-07-22T06:09:51;3.43;;;3.23;;
17614;SDS011;8926;49.720;6.576;2022-07-22T06:12:17;4.50;;;4.20;;
17614;SDS011;8926;49.720;6.576;2022-07-22T06:14:42;4.70;;;4.40;;
17614;SDS011;8926;49.720;6.576;2022-07-22T06:17:08;4.30;;;4.00;;
17614;SDS011;8926;49.720;6.576;2022-07-22T06:19:33;5.43;;;4.93;;
17614;SDS011;8926;49.720;6.576;2022-07-22T06:21:58;4.00;;;3.80;;
17614;SDS011;8926;49.720;6.576;2022-07-22T06:24:24;4.43;;;4.13;;
17614;SDS011;8926;49.720;6.576;2022-07-22T06:26:49;4.10;;;3.70;;
17614;SDS011;8926;49.720;6.576;2022-07-22T06:29:14;4.10;;;3.80;;
17614;SDS011;8926;49.720;6.576;2022-07-22T06:31:40;4.70;;;4.40;;
17614;SDS011;8926;49.720;6.576;2022-07-22T06:34:06;4.57;;;4.27;;
17614;SDS011;8926;49.720;6.576;2022-07-22T06:36:31;5.07;;;4.73;;
17614;SDS011;8926;49.720;6.576;2022-07-22T06:38:57;4.77;;;4.37;;
17614;SDS011;8926;49.720;6.576;2022-07-22T06:41:22;4.60;;;4.30;;
17614;SDS011;8926;49.720;6.576;2022-07-22T06:43:48;4.60;;;4.30;;
17614;SDS011;8926;49.720;6.576;2022-07-22T06:46:13;4.80;;;4.50;;
17614;SDS011;8926;49.720;6.576;2022-07-22T06:48:38;4.57;;;4.27;;
17614;SDS011;8926;49.720;6.576;2022-07-22T06:51:04;6.03;;;5.23;;
17614;SDS011;8926;49.720;6.576;2022-07-22T06:53:29;4.63;;;4.33;;
17614;SDS011;8926;49.720;6.576;2022-07-22T06:55:54;4.93;;;4.57;;
17614;SDS011;8926;49.720;6.576;2022-07-22T06:58:20;5.87;;;5.27;;
17614;SDS011;8926;49.720;6.576;2022-07-22T07:00:45;5.33;;;4.93;;
17614;SDS011;8926;49.720;6.576;2022-07-22T07:03:11;4.50;;;4.20;;
17614;SDS011;8926;49.720;6.576;2022-07-22T07:05:37;4.43;;;4.13;;
17614;SDS011;8926;49.720;6.576;2022-07-22T07:08:02;3.73;;;3.43;;
17614;SDS011;8926;49.720;6.576;2022-07-22T07:10:27;4.37;;;4.07;;
17614;SDS011;8926;49.720;6.576;2022-07-22T07:12:58;5.00;;;4.60;;
17614;SDS011;8926;49.720;6.576;2022-07-22T07:15:24;4.10;;;3.80;;
17614;SDS011;8926;49.720;6.576;2022-07-22T07:17:51;3.80;;;3.60;;
17614;SDS011;8926;49.720;6.576;2022-07-22T07:20:17;4.77;;;4.43;;
17614;SDS011;8926;49.720;6.576;2022-07-22T07:22:43;3.90;;;3.67;;
17614;SDS011;8926;49.720;6.576;2022-07-22T07:25:08;4.10;;;3.90;;
17614;SDS011;8926;49.720;6.576;2022-07-22T07:27:34;4.17;;;3.87;;
17614;SDS011;8926;49.720;6.576;2022-07-22T07:29:59;4.80;;;4.40;;
17614;SDS011;8926;49.720;6.576;2022-07-22T07:32:25;4.83;;;4.27;;
17614;SDS011;8926;49.720;6.576;2022-07-22T07:34:50;4.57;;;4.17;;
17614;SDS011;8926;49.720;6.576;2022-07-22T07:37:16;4.60;;;4.30;;
17614;SDS011;8926;49.720;6.576;2022-07-22T07:39:41;4.40;;;4.10;;
17614;SDS011;8926;49.720;6.576;2022-07-22T07:42:06;4.93;;;4.53;;
17614;SDS011;8926;49.720;6.576;2022-07-22T07:44:32;4.37;;;3.97;;
17614;SDS011;8926;49.720;6.576;2022-07-22T07:46:57;5.50;;;5.10;;
17614;SDS011;8926;49.720;6.576;2022-07-22T07:49:22;4.90;;;4.50;;
17614;SDS011;8926;49.720;6.576;2022-07-22T07:51:48;4.00;;;3.80;;
17614;SDS011;8926;49.720;6.576;2022-07-22T07:54:14;4.50;;;4.20;;
17614;SDS011;8926;49.720;6.576;2022-07-22T07:56:39;5.13;;;4.73;;
17614;SDS011;8926;49.720;6.576;2022-07-22T07:59:04;3.87;;;3.67;;
17614;SDS011;8926;49.720;6.576;2022-07-22T08:01:29;3.97;;;3.77;;
17614;SDS011;8926;49.720;6.576;2022-07-22T08:03:55;4.93;;;4.53;;
17614;SDS011;8926;49.720;6.576;2022-07-22T08:06:20;4.23;;;3.93;;
17614;SDS011;8926;49.720;6.576;2022-07-22T08:08:45;3.77;;;3.47;;
17614;SDS011;8926;49.720;6.576;2022-07-22T08:11:11;4.27;;;3.87;;
17614;SDS011;8926;49.720;6.576;2022-07-22T08:13:36;3.60;;;3.40;;
17614;SDS011;8926;49.720;6.576;2022-07-22T08:16:01;3.50;;;3.30;;
17614;SDS011;8926;49.720;6.576;2022-07-22T08:18:27;3.83;;;3.63;;
17614;SDS011;8926;49.720;6.576;2022-07-22T08:20:53;3.70;;;3.50;;
17614;SDS011;8926;49.720;6.576;2022-07-22T08:23:19;4.07;;;3.80;;
17614;SDS011;8926;49.720;6.576;2022-07-22T08:25:44;3.40;;;3.20;;
17614;SDS011;8926;49.720;6.576;2022-07-22T08:28:09;3.97;;;3.77;;
17614;SDS011;8926;49.720;6.576;2022-07-22T08:30:35;3.47;;;3.27;;
17614;SDS011;8926;49.720;6.576;2022-07-22T08:33:01;4.30;;;4.03;;
17614;SDS011;8926;49.720;6.576;2022-07-22T08:35:26;3.50;;;3.30;;
17614;SDS011;8926;49.720;6.576;2022-07-22T08:37:51;3.30;;;3.10;;
17614;SDS011;8926;49.720;6.576;2022-07-22T08:40:17;4.00;;;3.70;;
17614;SDS011;8926;49.720;6.576;2022-07-22T08:42:46;4.20;;;3.90;;
17614;SDS011;8926;49.720;6.576;2022-07-22T08:45:13;4.10;;;3.90;;
17614;SDS011;8926;49.720;6.576;2022-07-22T08:47:38;3.60;;;3.40;;
17614;SDS011;8926;49.720;6.576;2022-07-22T08:50:04;3.90;;;3.43;;
17614;SDS011;8926;49.720;6.576;2022-07-22T08:52:30;3.60;;;3.40;;
17614;SDS011;8926;49.720;6.576;2022-07-22T08:54:55;4.47;;;4.17;;
17614;SDS011;8926;49.720;6.576;2022-07-22T08:57:21;3.90;;;3.70;;
17614;SDS011;8926;49.720;6.576;2022-07-22T08:59:53;3.50;;;3.20;;
17614;SDS011;8926;49.720;6.576;2022-07-22T09:02:20;3.83;;;3.63;;
17614;SDS011;8926;49.720;6.576;2022-07-22T09:07:38;3.70;;;3.50;;
17614;SDS011;8926;49.720;6.576;2022-07-22T09:10:15;3.80;;;3.57;;
17614;SDS011;8926;49.720;6.576;2022-07-22T09:12:55;3.67;;;3.37;;
17614;SDS011;8926;49.720;6.576;2022-07-22T09:15:24;3.30;;;3.10;;
17614;SDS011;8926;49.720;6.576;2022-07-22T09:17:51;4.20;;;3.80;;
17614;SDS011;8926;49.720;6.576;2022-07-22T09:20:17;3.57;;;3.30;;
17614;SDS011;8926;49.720;6.576;2022-07-22T09:22:44;3.50;;;3.30;;
17614;SDS011;8926;49.720;6.576;2022-07-22T09:25:26;3.47;;;3.27;;
17614;SDS011;8926;49.720;6.576;2022-07-22T09:30:30;3.00;;;2.80;;
17614;SDS011;8926;49.720;6.576;2022-07-22T09:32:55;2.97;;;2.83;;
17614;SDS011;8926;49.720;6.576;2022-07-22T09:35:21;2.67;;;2.57;;
17614;SDS011;8926;49.720;6.576;2022-07-22T09:38:06;3.00;;;2.90;;
17614;SDS011;8926;49.720;6.576;2022-07-22T09:40:34;3.43;;;3.23;;
17614;SDS011;8926;49.720;6.576;2022-07-22T09:43:04;3.60;;;3.40;;
17614;SDS011;8926;49.720;6.576;2022-07-22T09:45:31;3.10;;;2.90;;
17614;SDS011;8926;49.720;6.576;2022-07-22T09:47:59;3.10;;;2.93;;
17614;SDS011;8926;49.720;6.576;2022-07-22T09:52:52;2.90;;;2.70;;
17614;SDS011;8926;49.720;6.576;2022-07-22T09:55:20;3.17;;;3.00;;
17614;SDS011;8926;49.720;6.576;2022-07-22T09:57:46;3.10;;;2.90;;
17614;SDS011;8926;49.720;6.576;2022-07-22T10:00:12;3.33;;;3.10;;
17614;SDS011;8926;49.720;6.576;2022-07-22T10:02:42;3.37;;;3.17;;
17614;SDS011;8926;49.720;6.576;2022-07-22T10:05:11;3.47;;;3.27;;
17614;SDS011;8926;49.720;6.576;2022-07-22T10:07:38;3.13;;;2.93;;
17614;SDS011;8926;49.720;6.576;2022-07-22T10:10:06;3.83;;;3.63;;
17614;SDS011;8926;49.720;6.576;2022-07-22T10:12:34;3.40;;;3.20;;
17614;SDS011;8926;49.720;6.576;2022-07-22T10:15:01;3.23;;;3.03;;
17614;SDS011;8926;49.720;6.576;2022-07-22T10:17:26;3.70;;;3.50;;
17614;SDS011;8926;49.720;6.576;2022-07-22T10:19:52;3.50;;;3.30;;
17614;SDS011;8926;49.720;6.576;2022-07-22T10:25:06;3.57;;;3.27;;
17614;SDS011;8926;49.720;6.576;2022-07-22T10:27:46;3.10;;;2.90;;
17614;SDS011;8926;49.720;6.576;2022-07-22T10:30:17;3.30;;;3.20;;
17614;SDS011;8926;49.720;6.576;2022-07-22T10:32:44;4.00;;;3.70;;
17614;SDS011;8926;49.720;6.576;2022-07-22T10:37:36;3.40;;;3.20;;
17614;SDS011;8926;49.720;6.576;2022-07-22T10:45:30;3.20;;;3.00;;
17614;SDS011;8926;49.720;6.576;2022-07-22T10:47:58;3.10;;;3.00;;
17614;SDS011;8926;49.720;6.576;2022-07-22T10:55:39;4.23;;;4.03;;
17614;SDS011;8926;49.720;6.576;2022-07-22T11:01:01;3.20;;;3.00;;
17614;SDS011;8926;49.720;6.576;2022-07-22T11:03:31;4.40;;;4.10;;
17614;SDS011;8926;49.720;6.576;2022-07-22T11:06:13;3.40;;;3.20;;
17614;SDS011;8926;49.720;6.576;2022-07-22T11:08:40;2.83;;;2.73;;
17614;SDS011;8926;49.720;6.576;2022-07-22T11:11:07;2.97;;;2.80;;
17614;SDS011;8926;49.720;6.576;2022-07-22T11:13:33;2.80;;;2.70;;
17614;SDS011;8926;49.720;6.576;2022-07-22T11:16:15;2.90;;;2.80;;
17614;SDS011;8926;49.720;6.576;2022-07-22T11:18:57;3.37;;;3.17;;
17614;SDS011;8926;49.720;6.576;2022-07-22T11:21:25;3.90;;;3.70;;
17614;SDS011;8926;49.720;6.576;2022-07-22T11:23:54;4.13;;;3.93;;
17614;SDS011;8926;49.720;6.576;2022-07-22T11:26:24;4.40;;;4.10;;
17614;SDS011;8926;49.720;6.576;2022-07-22T11:28:56;3.57;;;3.37;;
17614;SDS011;8926;49.720;6.576;2022-07-22T11:31:22;4.27;;;3.67;;
17614;SDS011;8926;49.720;6.576;2022-07-22T11:33:47;4.07;;;3.70;;
17614;SDS011;8926;49.720;6.576;2022-07-22T11:36:13;3.93;;;3.73;;
17614;SDS011;8926;49.720;6.576;2022-07-22T11:41:11;3.63;;;3.33;;
17614;SDS011;8926;49.720;6.576;2022-07-22T11:43:40;4.40;;;4.10;;
17614;SDS011;8926;49.720;6.576;2022-07-22T11:46:09;4.60;;;4.30;;
17614;SDS011;8926;49.720;6.576;2022-07-22T11:48:34;4.00;;;3.60;;
17614;SDS011;8926;49.720;6.576;2022-07-22T11:51:00;3.33;;;3.13;;
17614;SDS011;8926;49.720;6.576;2022-07-22T11:53:26;4.20;;;3.90;;
17614;SDS011;8926;49.720;6.576;2022-07-22T11:55:56;3.40;;;3.20;;
17614;SDS011;8926;49.720;6.576;2022-07-22T11:58:35;2.83;;;2.73;;
17614;SDS011;8926;49.720;6.576;2022-07-22T12:01:04;3.70;;;3.50;;
17614;SDS011;8926;49.720;6.576;2022-07-22T12:03:32;4.30;;;4.10;;
17614;SDS011;8926;49.720;6.576;2022-07-22T12:06:00;3.50;;;3.30;;
17614;SDS011;8926;49.720;6.576;2022-07-22T12:08:26;2.70;;;2.60;;
17614;SDS011;8926;49.720;6.576;2022-07-22T12:10:52;4.30;;;4.00;;
17614;SDS011;8926;49.720;6.576;2022-07-22T12:13:19;3.97;;;3.77;;
17614;SDS011;8926;49.720;6.576;2022-07-22T12:15:44;2.90;;;2.80;;
17614;SDS011;8926;49.720;6.576;2022-07-22T12:20:49;3.47;;;3.27;;
17614;SDS011;8926;49.720;6.576;2022-07-22T12:23:17;4.43;;;3.80;;
17614;SDS011;8926;49.720;6.576;2022-07-22T12:25:50;3.37;;;3.17;;
17614;SDS011;8926;49.720;6.576;2022-07-22T12:28:33;3.90;;;3.63;;
17614;SDS011;8926;49.720;6.576;2022-07-22T12:30:58;4.20;;;4.00;;
17614;SDS011;8926;49.720;6.576;2022-07-22T12:33:24;4.50;;;4.10;;
17614;SDS011;8926;49.720;6.576;2022-07-22T12:36:03;5.27;;;4.87;;
17614;SDS011;8926;49.720;6.576;2022-07-22T12:38:30;5.20;;;4.80;;
17614;SDS011;8926;49.720;6.576;2022-07-22T12:40:56;3.90;;;3.70;;
17614;SDS011;8926;49.720;6.576;2022-07-22T12:43:25;4.60;;;4.30;;
17614;SDS011;8926;49.720;6.576;2022-07-22T12:45:51;4.53;;;4.23;;
17614;SDS011;8926;49.720;6.576;2022-07-22T12:48:17;4.80;;;4.50;;
17614;SDS011;8926;49.720;6.576;2022-07-22T12:50:55;3.73;;;3.53;;
17614;SDS011;8926;49.720;6.576;2022-07-22T12:53:23;4.10;;;3.80;;
17614;SDS011;8926;49.720;6.576;2022-07-22T12:55:56;4.67;;;4.37;;
17614;SDS011;8926;49.720;6.576;2022-07-22T12:58:28;4.57;;;4.37;;
17614;SDS011;8926;49.720;6.576;2022-07-22T13:00:56;3.80;;;3.60;;
17614;SDS011;8926;49.720;6.576;2022-07-22T13:03:23;4.00;;;3.80;;
17614;SDS011;8926;49.720;6.576;2022-07-22T13:05:51;3.50;;;3.30;;
17614;SDS011;8926;49.720;6.576;2022-07-22T13:08:19;4.13;;;3.73;;
17614;SDS011;8926;49.720;6.576;2022-07-22T13:10:44;3.20;;;3.00;;
17614;SDS011;8926;49.720;6.576;2022-07-22T13:13:10;3.37;;;3.17;;
17614;SDS011;8926;49.720;6.576;2022-07-22T13:15:35;2.53;;;2.43;;
17614;SDS011;8926;49.720;6.576;2022-07-22T13:18:01;3.63;;;3.43;;
17614;SDS011;8926;49.720;6.576;2022-07-22T13:20:26;3.50;;;3.30;;
17614;SDS011;8926;49.720;6.576;2022-07-22T13:22:51;3.60;;;3.40;;
17614;SDS011;8926;49.720;6.576;2022-07-22T13:25:17;2.87;;;2.77;;
17614;SDS011;8926;49.720;6.576;2022-07-22T13:27:42;2.50;;;2.40;;
17614;SDS011;8926;49.720;6.576;2022-07-22T13:30:08;2.93;;;2.80;;
17614;SDS011;8926;49.720;6.576;2022-07-22T13:32:34;3.07;;;2.87;;
17614;SDS011;8926;49.720;6.576;2022-07-22T13:34:59;3.27;;;3.07;;
17614;SDS011;8926;49.720;6.576;2022-07-22T13:37:24;3.73;;;3.43;;
17614;SDS011;8926;49.720;6.576;2022-07-22T13:39:50;2.50;;;2.40;;
17614;SDS011;8926;49.720;6.576;2022-07-22T13:42:16;3.63;;;3.43;;
17614;SDS011;8926;49.720;6.576;2022-07-22T13:44:48;3.03;;;2.90;;
17614;SDS011;8926;49.720;6.576;2022-07-22T13:47:16;3.80;;;3.60;;
17614;SDS011;8926;49.720;6.576;2022-07-22T13:49:41;2.73;;;2.63;;
17614;SDS011;8926;49.720;6.576;2022-07-22T13:52:07;3.67;;;3.47;;
17614;SDS011;8926;49.720;6.576;2022-07-22T13:54:32;3.27;;;3.17;;
17614;SDS011;8926;49.720;6.576;2022-07-22T13:56:58;2.90;;;2.70;;
17614;SDS011;8926;49.720;6.576;2022-07-22T13:59:25;2.80;;;2.70;;
17614;SDS011;8926;49.720;6.576;2022-07-22T14:01:50;2.70;;;2.50;;
17614;SDS011;8926;49.720;6.576;2022-07-22T14:04:16;3.93;;;3.63;;
17614;SDS011;8926;49.720;6.576;2022-07-22T14:06:42;3.50;;;3.30;;
17614;SDS011;8926;49.720;6.576;2022-07-22T14:09:07;3.67;;;3.47;;
17614;SDS011;8926;49.720;6.576;2022-07-22T14:11:32;2.80;;;2.70;;
17614;SDS011;8926;49.720;6.576;2022-07-22T14:13:58;2.87;;;2.67;;
17614;SDS011;8926;49.720;6.576;2022-07-22T14:16:23;2.40;;;2.30;;
17614;SDS011;8926;49.720;6.576;2022-07-22T14:21:31;2.60;;;2.50;;
17614;SDS011;8926;49.720;6.576;2022-07-22T14:23:56;2.50;;;2.40;;
17614;SDS011;8926;49.720;6.576;2022-07-22T14:26:22;3.23;;;3.03;;
17614;SDS011;8926;49.720;6.576;2022-07-22T14:28:47;3.10;;;2.90;;
17614;SDS011;8926;49.720;6.576;2022-07-22T14:31:13;3.17;;;2.97;;
17614;SDS011;8926;49.720;6.576;2022-07-22T14:33:38;2.57;;;2.37;;
17614;SDS011;8926;49.720;6.576;2022-07-22T14:36:04;2.27;;;2.17;;
17614;SDS011;8926;49.720;6.576;2022-07-22T14:38:29;2.57;;;2.37;;
17614;SDS011;8926;49.720;6.576;2022-07-22T14:40:55;3.17;;;2.97;;
17614;SDS011;8926;49.720;6.576;2022-07-22T14:43:20;4.00;;;3.70;;
17614;SDS011;8926;49.720;6.576;2022-07-22T14:45:45;2.93;;;2.83;;
17614;SDS011;8926;49.720;6.576;2022-07-22T14:48:10;2.40;;;2.30;;
17614;SDS011;8926;49.720;6.576;2022-07-22T14:50:36;2.50;;;2.40;;
17614;SDS011;8926;49.720;6.576;2022-07-22T14:53:01;4.53;;;4.20;;
17614;SDS011;8926;49.720;6.576;2022-07-22T14:55:26;4.53;;;4.30;;
17614;SDS011;8926;49.720;6.576;2022-07-22T14:57:52;4.03;;;3.73;;
17614;SDS011;8926;49.720;6.576;2022-07-22T15:00:17;3.93;;;3.63;;
17614;SDS011;8926;49.720;6.576;2022-07-22T15:02:42;3.47;;;3.23;;
17614;SDS011;8926;49.720;6.576;2022-07-22T15:05:08;2.40;;;2.30;;
17614;SDS011;8926;49.720;6.576;2022-07-22T15:07:34;2.80;;;2.60;;
17614;SDS011;8926;49.720;6.576;2022-07-22T15:09:59;3.07;;;2.97;;
17614;SDS011;8926;49.720;6.576;2022-07-22T15:12:25;2.47;;;2.37;;
17614;SDS011;8926;49.720;6.576;2022-07-22T15:14:50;3.17;;;2.97;;
17614;SDS011;8926;49.720;6.576;2022-07-22T15:17:15;3.33;;;3.13;;
17614;SDS011;8926;49.720;6.576;2022-07-22T15:19:40;2.63;;;2.53;;
17614;SDS011;8926;49.720;6.576;2022-07-22T15:22:09;2.30;;;2.20;;
17614;SDS011;8926;49.720;6.576;2022-07-22T15:24:34;2.47;;;2.27;;
17614;SDS011;8926;49.720;6.576;2022-07-22T15:26:59;2.60;;;2.50;;
17614;SDS011;8926;49.720;6.576;2022-07-22T15:29:25;2.50;;;2.40;;